Time;durP1;ratioP1;P1;durP2;ratioP2;P2;SDS_P1;SDS_P2;PMS_P1;PMS_P2;Temp;Humidity;BMP_temperature;BMP_pressure;BME280_temperature;BME280_humidity;BME280_pressure;Samples;Min_cycle;Max_cycle;Signal;HPM_P1;HPM_P2
2023/07/15 00:01:50;;;;;;;11.55;4.28;;;28.00;99.90;;;;;;1817224;78;21193;-79
2023/07/15 00:04:29;;;;;;;13.65;4.08;;;28.10;99.90;;;;;;1799723;78;21629;-77
2023/07/15 00:07:05;;;;;;;12.47;3.90;;;28.10;99.90;;;;;;1809192;78;21135;-77
2023/07/15 00:09:41;;;;;;;14.70;4.28;;;28.10;99.90;;;;;;1800345;78;21127;-76
2023/07/15 00:12:12;;;;;;;10.93;4.08;;;28.10;99.90;;;;;;1806301;78;21170;-79
2023/07/15 00:14:43;;;;;;;10.38;4.08;;;28.10;99.90;;;;;;1771430;80;21114;-78
2023/07/15 00:17:16;;;;;;;19.10;3.62;;;28.20;99.90;;;;;;1799510;78;21119;-79
2023/07/15 00:19:49;;;;;;;10.72;3.67;;;28.10;99.90;;;;;;1802292;78;21690;-79
2023/07/15 00:22:23;;;;;;;10.63;3.85;;;28.20;99.90;;;;;;1762420;81;21161;-80
2023/07/15 00:24:56;;;;;;;14.13;3.95;;;28.20;99.90;;;;;;1761739;81;21596;-80
2023/07/15 00:27:30;;;;;;;9.18;3.70;;;28.20;99.90;;;;;;1810919;78;21608;-77
2023/07/15 00:30:03;;;;;;;9.40;4.20;;;28.30;99.90;;;;;;1806064;78;21409;-77
2023/07/15 00:32:36;;;;;;;10.82;3.47;;;28.30;99.90;;;;;;1807752;78;21123;-80
2023/07/15 00:35:28;;;;;;;10.38;3.80;;;28.30;99.90;;;;;;1808105;78;21131;-79
2023/07/15 00:38:03;;;;;;;9.30;3.90;;;28.30;99.90;;;;;;1803286;78;21092;-82
2023/07/15 00:40:37;;;;;;;8.15;3.35;;;28.40;99.90;;;;;;1795540;78;21115;-78
2023/07/15 00:43:48;;;;;;;16.15;5.80;;;28.40;99.90;;;;;;1798672;78;21143;-79
2023/07/15 00:46:27;;;;;;;17.77;4.35;;;28.40;99.90;;;;;;1768132;80;21178;-81
2023/07/15 00:49:04;;;;;;;6.17;3.33;;;28.50;99.90;;;;;;1809872;78;21135;-81
2023/07/15 00:51:38;;;;;;;7.92;3.70;;;28.50;99.90;;;;;;1796900;78;21201;-80
2023/07/15 00:54:14;;;;;;;;;;;28.60;99.90;;;;;;1818658;78;21918;-80
2023/07/15 00:56:50;;;;;;;10.03;3.45;;;28.60;99.90;;;;;;1805812;78;20165;-80
2023/07/15 00:59:25;;;;;;;8.43;3.42;;;28.70;99.90;;;;;;1784528;78;21142;-81
2023/07/15 01:02:02;;;;;;;7.37;3.42;;;28.70;99.90;;;;;;1802069;78;21562;-80
2023/07/15 01:04:35;;;;;;;9.73;3.30;;;28.70;99.90;;;;;;1782136;78;21238;-81
2023/07/15 01:07:26;;;;;;;7.53;3.20;;;28.70;99.90;;;;;;1775781;80;21155;-83
2023/07/15 01:09:59;;;;;;;8.18;2.90;;;28.80;99.90;;;;;;1801567;78;21530;-79
2023/07/15 01:12:33;;;;;;;8.85;3.60;;;28.80;99.90;;;;;;1792206;78;21143;-80
2023/07/15 01:15:07;;;;;;;11.05;3.62;;;28.80;99.90;;;;;;1836103;77;21106;-80
2023/07/15 01:17:39;;;;;;;9.35;3.45;;;28.90;99.90;;;;;;1833771;77;21054;-81
2023/07/15 01:20:27;;;;;;;8.85;3.30;;;28.90;99.90;;;;;;1830969;77;21067;-78
2023/07/15 01:22:54;;;;;;;7.37;3.95;;;28.90;99.90;;;;;;1830976;77;21154;-77
2023/07/15 01:25:36;;;;;;;7.95;3.17;;;28.90;99.90;;;;;;1835892;77;21152;-79
2023/07/15 01:28:30;;;;;;;8.25;3.27;;;28.90;99.90;;;;;;1822067;78;21167;-77
2023/07/15 01:31:30;;;;;;;15.60;4.50;;;28.90;99.90;;;;;;1793152;78;21138;-80
2023/07/15 01:34:08;;;;;;;18.75;4.47;;;28.90;99.90;;;;;;1842374;76;21099;-79
2023/07/15 01:36:42;;;;;;;29.72;5.40;;;29.00;99.90;;;;;;1829019;77;21128;-81
2023/07/15 01:39:16;;;;;;;17.62;5.90;;;28.90;99.90;;;;;;1802345;78;21249;-77
2023/07/15 01:41:52;;;;;;;;;;;29.00;99.90;;;;;;1802020;78;21592;-82
2023/07/15 01:44:28;;;;;;;45.10;6.20;;;29.00;99.90;;;;;;1816682;78;20235;-81
2023/07/15 01:47:04;;;;;;;16.30;4.03;;;29.00;99.90;;;;;;1834528;77;21087;-81
2023/07/15 01:49:42;;;;;;;16.57;4.80;;;29.00;99.90;;;;;;1827010;78;21201;-82
2023/07/15 01:52:15;;;;;;;14.93;5.03;;;29.00;99.90;;;;;;1818728;78;21236;-79
2023/07/15 01:54:47;;;;;;;9.88;4.08;;;29.00;99.90;;;;;;1817454;78;21546;-79
2023/07/15 01:57:22;;;;;;;23.70;5.30;;;29.00;99.90;;;;;;1823663;78;21264;-80
2023/07/15 01:59:57;;;;;;;14.85;4.80;;;29.00;99.90;;;;;;1804752;78;21685;-83
2023/07/15 02:02:28;;;;;;;25.95;6.50;;;29.00;99.90;;;;;;1831761;77;21119;-81
2023/07/15 02:05:09;;;;;;;15.43;3.98;;;29.10;99.90;;;;;;1804741;78;21150;-77
2023/07/15 02:07:43;;;;;;;24.27;5.28;;;29.10;99.90;;;;;;1847561;77;21102;-76
2023/07/15 02:10:17;;;;;;;22.58;6.08;;;29.10;99.90;;;;;;1845508;77;21178;-78
2023/07/15 02:12:55;;;;;;;24.67;5.85;;;29.10;99.90;;;;;;1786250;78;21079;-80
2023/07/15 02:15:41;;;;;;;21.87;5.62;;;29.20;99.90;;;;;;1818777;77;21122;-81
2023/07/15 02:18:25;;;;;;;20.52;7.92;;;29.20;99.90;;;;;;1796732;78;21196;-81
2023/07/15 02:21:05;;;;;;;23.35;7.70;;;29.20;99.90;;;;;;1787419;79;21122;-78
2023/07/15 02:23:40;;;;;;;15.08;5.70;;;29.30;99.90;;;;;;1811895;77;21259;-79
2023/07/15 02:26:18;;;;;;;17.95;5.17;;;29.30;99.90;;;;;;1820764;77;21263;-79
2023/07/15 02:29:09;;;;;;;29.15;5.97;;;29.30;99.90;;;;;;1832447;77;21636;-83
2023/07/15 02:31:47;;;;;;;19.87;5.92;;;29.40;99.90;;;;;;1788564;79;21152;-81
2023/07/15 02:34:41;;;;;;;18.98;5.33;;;29.50;99.90;;;;;;1792524;79;21162;-81
2023/07/15 02:37:19;;;;;;;17.90;5.22;;;29.60;99.90;;;;;;1814237;79;21820;-83
2023/07/15 02:40:01;;;;;;;37.48;7.05;;;29.60;99.90;;;;;;1807568;79;21143;-78
2023/07/15 02:42:34;;;;;;;12.73;3.72;;;29.60;99.90;;;;;;1819113;78;21729;-82
2023/07/15 02:45:06;;;;;;;12.93;4.00;;;29.80;99.90;;;;;;1817957;78;21177;-82
2023/07/15 02:47:41;;;;;;;10.63;3.65;;;29.90;99.90;;;;;;1818539;78;21090;-80
2023/07/15 02:50:17;;;;;;;31.75;6.22;;;30.00;99.90;;;;;;1801005;78;21208;-80
2023/07/15 02:52:50;;;;;;;12.88;3.70;;;30.00;99.90;;;;;;1813659;78;21165;-84
2023/07/15 02:55:25;;;;;;;10.93;3.55;;;30.10;99.40;;;;;;1805717;79;21096;-82
2023/07/15 02:58:03;;;;;;;6.67;3.35;;;30.20;99.70;;;;;;1778651;78;21127;-83
2023/07/15 03:00:39;;;;;;;13.72;3.40;;;30.20;99.80;;;;;;1843615;77;21499;-83
2023/07/15 03:03:14;;;;;;;7.97;2.98;;;30.30;99.80;;;;;;1821691;78;21111;-82
2023/07/15 03:05:53;;;;;;;19.80;4.45;;;30.40;99.50;;;;;;1806833;79;21103;-81
2023/07/15 03:08:32;;;;;;;6.40;2.67;;;30.50;99.30;;;;;;1793282;79;21239;-83
2023/07/15 03:11:09;;;;;;;12.43;2.87;;;30.50;98.90;;;;;;1773526;79;21759;-83
2023/07/15 03:13:42;;;;;;;5.43;2.83;;;30.60;99.10;;;;;;1809167;79;21063;-83
2023/07/15 03:16:21;;;;;;;6.65;3.33;;;30.60;99.20;;;;;;1771569;80;21121;-83
2023/07/15 03:18:55;;;;;;;8.00;3.02;;;30.60;99.50;;;;;;1767291;80;21283;-84
2023/07/15 03:21:31;;;;;;;9.30;3.42;;;30.70;98.90;;;;;;1798708;79;21263;-80
2023/07/15 03:24:03;;;;;;;17.73;3.95;;;30.80;98.50;;;;;;1798025;78;21130;-81
2023/07/15 03:26:37;;;;;;;11.48;3.08;;;30.80;98.20;;;;;;1795223;79;21194;-81
2023/07/15 03:29:14;;;;;;;13.10;4.17;;;30.80;98.60;;;;;;1768219;80;21174;-82
2023/07/15 03:31:48;;;;;;;22.30;4.67;;;30.90;98.60;;;;;;1766299;80;21087;-79
2023/07/15 03:34:24;;;;;;;16.52;5.10;;;30.90;97.90;;;;;;1771811;80;21126;-82
2023/07/15 03:36:58;;;;;;;12.13;3.72;;;31.00;97.90;;;;;;1779415;80;21118;-82
2023/07/15 03:39:31;;;;;;;12.10;3.47;;;30.90;97.80;;;;;;1768112;80;21178;-82
2023/07/15 03:42:04;;;;;;;9.28;3.60;;;30.90;97.90;;;;;;1768272;80;21214;-80
2023/07/15 03:44:42;;;;;;;8.25;3.50;;;30.90;98.10;;;;;;1818993;77;21099;-84
2023/07/15 03:47:18;;;;;;;8.05;2.50;;;30.90;98.00;;;;;;1801222;79;21104;-79
2023/07/15 03:49:52;;;;;;;11.30;3.95;;;30.80;98.10;;;;;;1819597;78;21182;-80
2023/07/15 03:52:32;;;;;;;13.72;3.65;;;30.80;98.50;;;;;;1788962;80;21174;-81
2023/07/15 03:55:05;;;;;;;10.23;3.95;;;30.90;98.30;;;;;;1815098;78;21113;-82
2023/07/15 03:57:38;;;;;;;48.95;10.13;;;30.90;98.30;;;;;;1775339;80;21217;-81
2023/07/15 04:00:17;;;;;;;11.40;3.40;;;30.90;98.30;;;;;;1810760;78;21201;-80
2023/07/15 04:02:54;;;;;;;6.75;2.92;;;30.90;97.70;;;;;;1812632;79;21217;-83
2023/07/15 04:05:29;;;;;;;11.93;4.12;;;31.00;97.70;;;;;;1806462;79;21105;-81
2023/07/15 04:08:05;;;;;;;21.35;5.30;;;31.10;97.70;;;;;;1794004;79;21415;-79
2023/07/15 04:10:49;;;;;;;31.40;5.90;;;31.10;97.70;;;;;;1817321;77;21185;-79
2023/07/15 04:13:42;;;;;;;47.13;10.25;;;31.10;97.40;;;;;;1815746;77;21230;-82
2023/07/15 04:16:19;;;;;;;27.87;5.47;;;31.20;97.40;;;;;;1790964;79;21139;-83
2023/07/15 04:18:54;;;;;;;25.00;4.47;;;31.20;97.40;;;;;;1796999;79;21690;-82
2023/07/15 04:21:32;;;;;;;11.10;3.98;;;31.30;97.80;;;;;;1820529;77;21146;-81
2023/07/15 04:24:08;;;;;;;6.92;2.65;;;31.40;97.50;;;;;;1819097;78;21173;-83
2023/07/15 04:26:43;;;;;;;38.25;8.33;;;31.50;97.20;;;;;;1803962;78;21099;-81
2023/07/15 04:29:17;;;;;;;17.82;5.35;;;31.60;97.20;;;;;;1782224;78;21056;-81
2023/07/15 04:31:53;;;;;;;13.85;4.22;;;31.70;97.10;;;;;;1805572;78;21210;-81
2023/07/15 04:34:27;;;;;;;13.70;4.00;;;31.80;97.10;;;;;;1806323;79;21209;-78
2023/07/15 04:37:01;;;;;;;21.05;5.65;;;31.80;96.50;;;;;;1806044;78;21084;-77
2023/07/15 04:39:37;;;;;;;21.40;4.90;;;31.90;96.30;;;;;;1810022;78;21092;-80
2023/07/15 04:42:09;;;;;;;33.10;6.92;;;32.00;96.20;;;;;;1791910;79;21170;-77
2023/07/15 04:44:48;;;;;;;15.48;2.87;;;32.00;95.40;;;;;;1832928;77;21136;-81
2023/07/15 04:47:23;;;;;;;6.05;2.62;;;32.00;95.50;;;;;;1824272;76;21134;-82
2023/07/15 04:49:57;;;;;;;8.63;2.77;;;32.00;96.00;;;;;;1786756;79;21126;-81
2023/07/15 04:52:30;;;;;;;11.10;3.25;;;32.00;96.00;;;;;;1825424;77;21087;-82
2023/07/15 04:55:02;;;;;;;9.18;3.40;;;31.90;96.10;;;;;;1798373;78;21154;-82
2023/07/15 04:57:35;;;;;;;33.83;6.95;;;32.00;96.10;;;;;;1818753;77;21134;-82
2023/07/15 05:00:10;;;;;;;32.70;5.85;;;32.10;95.90;;;;;;1827004;77;21168;-79
2023/07/15 05:02:44;;;;;;;7.25;2.67;;;32.20;94.70;;;;;;1801534;79;21150;-80
2023/07/15 05:05:18;;;;;;;6.17;2.50;;;32.40;94.70;;;;;;1798565;79;21522;-77
2023/07/15 05:07:55;;;;;;;4.97;2.25;;;32.60;94.50;;;;;;1814784;78;21166;-81
2023/07/15 05:10:28;;;;;;;9.23;3.02;;;32.70;93.70;;;;;;1804585;78;21185;-78
2023/07/15 05:13:01;;;;;;;5.92;2.40;;;32.80;92.20;;;;;;1794222;78;21118;-80
2023/07/15 05:15:40;;;;;;;5.58;2.12;;;32.90;92.30;;;;;;1764636;80;21131;-82
2023/07/15 05:18:12;;;;;;;9.80;2.72;;;32.90;91.80;;;;;;1772597;80;21157;-83
2023/07/15 05:20:46;;;;;;;6.15;2.25;;;32.90;91.40;;;;;;1774045;79;21144;-82
2023/07/15 05:23:18;;;;;;;8.80;2.58;;;32.90;92.20;;;;;;1803160;78;21155;-81
2023/07/15 05:26:12;;;;;;;19.67;3.30;;;32.90;91.60;;;;;;1772034;79;21111;-81
2023/07/15 05:28:48;;;;;;;7.23;3.00;;;32.90;91.20;;;;;;1774603;80;21199;-80
2023/07/15 05:31:23;;;;;;;10.70;2.98;;;32.80;91.30;;;;;;1813679;78;21134;-82
2023/07/15 05:34:16;;;;;;;6.00;3.10;;;32.80;91.10;;;;;;1764322;80;21651;-81
2023/07/15 05:36:47;;;;;;;6.87;2.85;;;32.80;91.50;;;;;;1777828;79;21098;-80
2023/07/15 05:39:28;;;;;;;7.47;2.50;;;32.80;90.80;;;;;;1763834;80;21122;-81
2023/07/15 05:42:03;;;;;;;14.33;3.75;;;32.90;91.30;;;;;;1761185;80;21197;-81
2023/07/15 05:44:52;;;;;;;5.60;3.00;;;32.90;91.60;;;;;;1800890;78;21227;-82
2023/07/15 05:47:24;;;;;;;6.58;2.70;;;33.00;91.00;;;;;;1770524;80;21198;-78
2023/07/15 05:49:57;;;;;;;5.30;2.85;;;33.10;91.20;;;;;;1805758;78;21123;-84
2023/07/15 05:52:39;;;;;;;5.45;2.47;;;33.20;91.20;;;;;;1783468;80;21105;-77
2023/07/15 05:55:12;;;;;;;6.97;2.27;;;33.30;90.80;;;;;;1785643;78;21312;-77
2023/07/15 05:57:45;;;;;;;7.22;2.47;;;33.30;90.80;;;;;;1781545;80;21206;-80
2023/07/15 06:00:19;;;;;;;5.17;2.00;;;33.30;90.50;;;;;;1760006;80;21239;-79
2023/07/15 06:02:53;;;;;;;7.00;2.77;;;33.30;90.20;;;;;;1762182;80;21100;-79
2023/07/15 06:05:26;;;;;;;4.42;2.42;;;33.30;90.70;;;;;;1784353;80;21170;-82
2023/07/15 06:08:01;;;;;;;5.47;2.15;;;33.30;90.80;;;;;;1771868;80;21621;-79
2023/07/15 06:10:37;;;;;;;4.92;2.00;;;33.40;90.20;;;;;;1768333;79;21177;-78
2023/07/15 06:13:12;;;;;;;5.58;2.40;;;33.40;90.00;;;;;;1778889;77;21131;-84
2023/07/15 06:15:52;;;;;;;7.80;2.50;;;33.40;90.40;;;;;;1808696;77;21138;-83
2023/07/15 06:18:28;;;;;;;7.70;2.42;;;33.50;90.20;;;;;;1827742;77;21186;-81
2023/07/15 06:21:00;;;;;;;16.50;3.72;;;33.50;89.00;;;;;;1839621;77;21632;-81
2023/07/15 06:23:35;;;;;;;6.53;2.30;;;33.50;89.80;;;;;;1798128;79;21214;-82
2023/07/15 06:26:10;;;;;;;8.05;2.22;;;33.50;89.10;;;;;;1840762;77;21721;-78
2023/07/15 06:28:44;;;;;;;8.28;2.72;;;33.50;89.10;;;;;;1845926;76;21119;-81
2023/07/15 06:31:18;;;;;;;5.65;2.65;;;33.50;89.50;;;;;;1825856;77;21059;-82
2023/07/15 06:33:56;;;;;;;12.25;3.58;;;33.50;90.00;;;;;;1838936;76;21092;-79
2023/07/15 06:36:30;;;;;;;6.83;3.10;;;33.50;90.40;;;;;;1789864;79;21091;-80
2023/07/15 06:39:05;;;;;;;10.28;2.83;;;33.50;90.60;;;;;;1801561;78;21120;-83
2023/07/15 06:41:39;;;;;;;7.22;3.83;;;33.60;90.10;;;;;;1840258;77;21564;-79
2023/07/15 06:44:14;;;;;;;13.78;4.25;;;33.60;89.10;;;;;;1835641;77;21546;-81
2023/07/15 06:46:45;;;;;;;8.78;3.27;;;33.60;90.00;;;;;;1823337;77;21125;-83
2023/07/15 06:49:20;;;;;;;8.30;3.15;;;33.70;89.50;;;;;;1827349;77;21119;-81
2023/07/15 06:51:53;;;;;;;8.85;3.25;;;33.70;89.00;;;;;;1794942;79;21470;-78
2023/07/15 06:54:29;;;;;;;8.00;3.22;;;33.80;89.10;;;;;;1793854;79;21103;-83
2023/07/15 06:57:05;;;;;;;11.12;3.40;;;33.80;88.90;;;;;;1835501;77;21107;-80
2023/07/15 06:59:42;;;;;;;25.27;5.35;;;33.90;88.60;;;;;;1787439;79;21123;-82
2023/07/15 07:02:15;;;;;;;10.25;3.35;;;34.00;88.00;;;;;;1828554;77;21169;-79
2023/07/15 07:04:48;;;;;;;27.00;5.67;;;33.90;87.50;;;;;;1795079;79;21173;-78
2023/07/15 07:07:24;;;;;;;9.00;2.67;;;33.90;89.00;;;;;;1795043;79;21169;-76
2023/07/15 07:10:05;;;;;;;15.75;4.08;;;33.90;89.70;;;;;;1833046;77;21131;-78
2023/07/15 07:12:47;;;;;;;11.63;4.20;;;33.90;88.40;;;;;;1836658;77;21167;-81
2023/07/15 07:15:21;;;;;;;7.42;3.72;;;33.90;89.00;;;;;;1830827;77;21129;-79
2023/07/15 07:17:58;;;;;;;;;;;33.90;89.30;;;;;;1834994;77;21646;-79
2023/07/15 07:20:36;;;;;;;5.97;2.77;;;34.00;90.40;;;;;;1829957;77;20411;-78
2023/07/15 07:23:20;;;;;;;6.05;2.58;;;34.00;86.90;;;;;;1835420;77;21169;-84
2023/07/15 07:25:57;;;;;;;57.38;9.85;;;34.10;85.60;;;;;;1786275;80;21208;-78
2023/07/15 07:28:45;;;;;;;29.05;6.92;;;34.10;86.10;;;;;;1821829;79;21209;-82
2023/07/15 07:31:21;;;;;;;19.23;4.45;;;34.10;87.90;;;;;;1821034;77;21059;-79
2023/07/15 07:33:55;;;;;;;6.50;2.85;;;34.10;87.10;;;;;;1821483;77;21251;-82
2023/07/15 07:36:31;;;;;;;9.53;2.87;;;34.00;86.20;;;;;;1796176;79;21238;-80
2023/07/15 07:39:16;;;;;;;6.40;2.58;;;34.00;85.40;;;;;;1828599;77;21115;-82
2023/07/15 07:41:54;;;;;;;8.48;3.12;;;34.00;84.90;;;;;;1820392;79;21119;-82
2023/07/15 07:44:28;;;;;;;17.32;4.22;;;34.00;85.30;;;;;;1812069;79;21146;-81
2023/07/15 07:47:03;;;;;;;4.92;2.33;;;34.00;87.10;;;;;;1794858;79;21176;-82
2023/07/15 07:49:41;;;;;;;13.98;3.65;;;33.90;84.60;;;;;;1797484;79;21123;-81
2023/07/15 07:52:25;;;;;;;14.80;4.55;;;33.80;87.20;;;;;;1832504;77;21120;-82
2023/07/15 07:55:01;;;;;;;13.10;3.20;;;33.70;88.60;;;;;;1832570;77;21112;-80
2023/07/15 07:57:37;;;;;;;17.50;3.80;;;33.70;88.50;;;;;;1849333;77;21103;-82
2023/07/15 08:00:11;;;;;;;16.20;3.90;;;33.60;88.20;;;;;;1811328;78;21209;-78
2023/07/15 08:02:45;;;;;;;29.13;6.77;;;33.60;87.30;;;;;;1829862;77;21142;-81
2023/07/15 08:05:22;;;;;;;10.20;3.15;;;33.60;88.00;;;;;;1840141;77;21099;-84
2023/07/15 08:07:57;;;;;;;7.50;3.22;;;33.60;87.20;;;;;;1801554;79;21100;-83
2023/07/15 08:10:30;;;;;;;12.25;4.40;;;33.60;87.30;;;;;;1818448;78;21091;-78
2023/07/15 08:13:05;;;;;;;17.00;4.85;;;33.70;88.90;;;;;;1796970;79;21140;-83
2023/07/15 08:15:38;;;;;;;11.83;3.77;;;33.60;88.60;;;;;;1795387;77;21157;-82
2023/07/15 08:18:12;;;;;;;6.45;3.40;;;33.70;89.30;;;;;;1808213;79;21111;-80
2023/07/15 08:20:43;;;;;;;12.28;3.42;;;33.60;87.20;;;;;;1784708;80;21134;-84
2023/07/15 08:23:16;;;;;;;9.83;3.77;;;33.60;87.90;;;;;;1786003;79;21183;-82
2023/07/15 08:25:49;;;;;;;8.43;3.20;;;33.50;86.50;;;;;;1816179;78;21119;-83
2023/07/15 08:28:23;;;;;;;15.45;5.08;;;33.50;87.00;;;;;;1822597;78;21105;-82
2023/07/15 08:30:56;;;;;;;18.52;5.03;;;33.50;87.60;;;;;;1809511;78;21538;-82
2023/07/15 08:33:29;;;;;;;25.50;5.75;;;33.50;88.00;;;;;;1822052;77;21169;-78
2023/07/15 08:36:03;;;;;;;10.45;3.25;;;33.60;87.30;;;;;;1821747;76;21189;-77
2023/07/15 08:38:36;;;;;;;21.33;5.15;;;33.60;87.00;;;;;;1818933;77;21115;-78
2023/07/15 08:41:25;;;;;;;13.70;4.53;;;33.60;87.80;;;;;;1824162;77;21146;-79
2023/07/15 08:44:00;;;;;;;10.00;4.12;;;33.70;88.40;;;;;;1815862;77;21107;-80
2023/07/15 08:46:35;;;;;;;13.32;4.28;;;33.70;87.60;;;;;;1822963;77;21174;-80
2023/07/15 08:49:09;;;;;;;8.60;3.95;;;33.70;87.40;;;;;;1833926;77;21123;-81
2023/07/15 08:51:44;;;;;;;30.62;4.22;;;33.70;87.40;;;;;;1850858;76;21147;-82
2023/07/15 08:54:19;;;;;;;45.55;9.23;;;33.70;86.50;;;;;;1838632;77;21143;-81
2023/07/15 08:56:53;;;;;;;62.70;9.98;;;33.70;87.80;;;;;;1832880;77;21707;-79
2023/07/15 08:59:25;;;;;;;57.05;10.63;;;33.60;88.70;;;;;;1842124;77;21135;-83
2023/07/15 09:01:59;;;;;;;25.27;5.80;;;33.60;89.30;;;;;;1846162;77;21072;-80
2023/07/15 09:04:33;;;;;;;18.82;6.03;;;33.60;89.20;;;;;;1839781;77;21080;-83
2023/07/15 09:07:07;;;;;;;8.30;3.02;;;33.70;89.30;;;;;;1827418;77;21123;-81
2023/07/15 09:09:40;;;;;;;9.90;3.45;;;33.60;87.70;;;;;;1828230;77;21096;-80
2023/07/15 09:12:14;;;;;;;16.62;4.85;;;33.60;88.30;;;;;;1822779;77;21131;-82
2023/07/15 09:14:47;;;;;;;9.75;3.72;;;33.60;88.70;;;;;;1818261;77;21247;-79
2023/07/15 09:17:26;;;;;;;12.88;4.42;;;33.60;88.30;;;;;;1815738;77;21098;-82
2023/07/15 09:20:04;;;;;;;8.93;3.37;;;33.60;88.20;;;;;;1821930;77;21086;-81
2023/07/15 09:22:42;;;;;;;22.05;5.00;;;33.50;87.50;;;;;;1819092;78;21142;-82
2023/07/15 09:25:18;;;;;;;6.25;2.87;;;33.50;88.00;;;;;;1826729;77;21640;-83
2023/07/15 09:28:11;;;;;;;10.48;4.55;;;33.50;87.80;;;;;;1839365;77;21596;-81
2023/07/15 09:30:46;;;;;;;7.92;2.72;;;33.50;88.10;;;;;;1828060;77;21084;-80
2023/07/15 09:33:35;;;;;;;13.53;4.60;;;33.50;87.60;;;;;;1824665;77;21126;-80
2023/07/15 09:36:17;;;;;;;38.42;8.43;;;33.50;88.20;;;;;;1817532;77;21127;-82
2023/07/15 09:38:46;;;;;;;25.37;5.70;;;33.50;87.70;;;;;;1815556;77;21207;-80
2023/07/15 09:41:20;;;;;;;10.70;3.45;;;33.50;88.20;;;;;;1821832;77;21163;-81
2023/07/15 09:43:58;;;;;;;17.05;4.62;;;33.50;88.30;;;;;;1818996;77;21118;-80
2023/07/15 09:46:33;;;;;;;14.65;4.05;;;33.40;88.30;;;;;;1817450;77;21181;-79
2023/07/15 09:49:12;;;;;;;18.92;4.30;;;33.40;88.30;;;;;;1803868;77;21190;-79
2023/07/15 09:51:46;;;;;;;13.45;3.92;;;33.40;88.00;;;;;;1821189;77;21534;-79
2023/07/15 09:54:26;;;;;;;14.90;5.00;;;33.40;88.60;;;;;;1824022;77;21138;-80
2023/07/15 09:57:16;;;;;;;7.90;3.20;;;33.40;88.20;;;;;;1772074;80;21197;-78
2023/07/15 09:59:54;;;;;;;9.38;3.95;;;33.40;88.20;;;;;;1780105;80;21228;-81
2023/07/15 10:02:45;;;;;;;12.25;4.50;;;33.40;88.50;;;;;;1790217;79;21574;-81
2023/07/15 10:05:38;;;;;;;15.48;4.80;;;33.40;88.90;;;;;;1766839;80;21203;-83
2023/07/15 10:08:10;;;;;;;17.65;5.03;;;33.40;88.80;;;;;;1787049;78;21251;-82
2023/07/15 10:10:48;;;;;;;26.02;4.58;;;33.40;88.60;;;;;;1801861;79;21147;-77
2023/07/15 10:13:23;;;;;;;14.07;4.55;;;33.40;88.40;;;;;;1783619;80;21173;-77
2023/07/15 10:16:07;;;;;;;14.53;4.97;;;33.30;88.30;;;;;;1780364;79;21234;-79
2023/07/15 10:18:41;;;;;;;12.33;4.30;;;33.30;88.90;;;;;;1781214;80;21099;-83
2023/07/15 10:21:24;;;;;;;13.60;4.60;;;33.30;88.90;;;;;;1786213;79;21104;-81
2023/07/15 10:24:11;;;;;;;16.35;4.53;;;33.30;89.00;;;;;;1786311;79;21201;-80
2023/07/15 10:26:50;;;;;;;20.10;5.35;;;33.30;88.90;;;;;;1810719;79;21225;-81
2023/07/15 10:29:29;;;;;;;20.60;5.22;;;33.30;89.40;;;;;;1813053;79;21174;-81
2023/07/15 10:32:12;;;;;;;13.08;4.20;;;33.20;89.60;;;;;;1812204;79;21186;-82
2023/07/15 10:34:53;;;;;;;9.55;4.00;;;33.20;89.60;;;;;;1807302;79;21080;-79
2023/07/15 10:37:28;;;;;;;12.60;3.98;;;33.10;89.20;;;;;;1811667;78;21552;-80
2023/07/15 10:40:05;;;;;;;21.02;5.58;;;33.10;89.00;;;;;;1792803;79;21160;-79
2023/07/15 10:42:38;;;;;;;;;;;33.10;90.00;;;;;;1803177;79;21100;-79
2023/07/15 10:45:16;;;;;;;14.00;4.40;;;33.00;90.30;;;;;;1796558;79;20164;-80
2023/07/15 10:47:50;;;;;;;12.28;3.75;;;33.00;90.10;;;;;;1794418;79;21447;-80
2023/07/15 10:50:21;;;;;;;9.00;4.25;;;33.00;90.00;;;;;;1774570;79;21167;-81
2023/07/15 10:52:57;;;;;;;;;;;33.00;90.20;;;;;;1796742;79;21103;-81
2023/07/15 10:55:31;;;;;;;11.10;3.50;;;32.90;90.70;;;;;;1785198;79;20198;-80
2023/07/15 10:58:08;;;;;;;10.28;3.85;;;32.90;90.30;;;;;;1780621;79;21183;-83
2023/07/15 11:00:40;;;;;;;12.20;3.27;;;32.80;90.30;;;;;;1791799;79;21170;-80
2023/07/15 11:03:17;;;;;;;7.78;3.30;;;32.80;90.50;;;;;;1801882;79;21128;-81
2023/07/15 11:05:53;;;;;;;10.50;3.75;;;32.80;90.50;;;;;;1801270;79;21092;-76
2023/07/15 11:08:28;;;;;;;8.73;3.80;;;32.70;90.50;;;;;;1801450;79;21114;-82
2023/07/15 11:11:09;;;;;;;13.68;4.50;;;32.70;90.60;;;;;;1804445;79;21143;-80
2023/07/15 11:13:43;;;;;;;11.00;4.03;;;32.70;90.90;;;;;;1800427;79;21138;-81
2023/07/15 11:16:17;;;;;;;9.17;4.77;;;32.70;91.50;;;;;;1799225;79;21120;-80
2023/07/15 11:18:53;;;;;;;12.43;5.67;;;32.60;92.00;;;;;;1805163;79;21161;-80
2023/07/15 11:21:27;;;;;;;8.60;4.67;;;32.60;92.30;;;;;;1802301;79;21192;-81
2023/07/15 11:24:09;;;;;;;13.13;5.45;;;32.60;92.90;;;;;;1801184;79;21095;-79
2023/07/15 11:26:42;;;;;;;12.18;5.70;;;32.50;93.00;;;;;;1804398;79;21837;-81
2023/07/15 11:29:20;;;;;;;13.95;5.30;;;32.50;93.10;;;;;;1802948;78;21154;-80
2023/07/15 11:31:55;;;;;;;14.70;5.42;;;32.40;93.10;;;;;;1806583;78;21174;-78
2023/07/15 11:34:30;;;;;;;11.15;5.20;;;32.40;93.30;;;;;;1804858;78;21115;-80
2023/07/15 11:37:03;;;;;;;10.90;5.40;;;32.30;93.40;;;;;;1809710;79;21108;-80
2023/07/15 11:39:43;;;;;;;12.18;5.40;;;32.30;93.60;;;;;;1793899;78;21182;-82
2023/07/15 11:42:16;;;;;;;13.72;5.75;;;32.30;93.70;;;;;;1757673;80;21119;-81
2023/07/15 11:44:56;;;;;;;13.78;5.60;;;32.20;93.70;;;;;;1796274;78;21602;-82
2023/07/15 11:47:28;;;;;;;14.10;5.47;;;32.20;94.30;;;;;;1819327;78;21178;-81
2023/07/15 11:50:02;;;;;;;10.58;5.00;;;32.10;93.90;;;;;;1802204;78;21133;-77
2023/07/15 11:52:43;;;;;;;16.93;6.03;;;32.10;93.80;;;;;;1769206;80;21252;-83
2023/07/15 11:55:22;;;;;;;14.40;6.03;;;32.10;94.10;;;;;;1768590;80;21585;-82
2023/07/15 11:57:56;;;;;;;11.97;5.22;;;32.00;94.10;;;;;;1804039;78;21155;-78
2023/07/15 12:00:34;;;;;;;11.38;6.28;;;32.00;94.00;;;;;;1771295;80;21194;-82
2023/07/15 12:03:09;;;;;;;11.30;5.08;;;32.00;94.20;;;;;;1804657;78;21166;-82
2023/07/15 12:05:42;;;;;;;11.50;5.47;;;31.90;94.30;;;;;;1773857;80;21123;-81
2023/07/15 12:08:16;;;;;;;13.35;5.70;;;31.90;94.30;;;;;;1774324;80;21165;-81
2023/07/15 12:10:56;;;;;;;11.88;5.22;;;31.90;94.40;;;;;;1814381;78;21284;-81
2023/07/15 12:13:32;;;;;;;10.88;5.28;;;31.90;94.40;;;;;;1808536;78;21527;-79
2023/07/15 12:16:18;;;;;;;11.83;5.92;;;31.90;94.50;;;;;;1812751;78;21100;-81
2023/07/15 12:18:56;;;;;;;12.03;5.42;;;31.90;94.70;;;;;;1849574;77;21582;-80
2023/07/15 12:21:27;;;;;;;9.60;4.92;;;31.80;94.70;;;;;;1808096;78;21586;-82
2023/07/15 12:24:00;;;;;;;13.03;6.15;;;31.80;94.70;;;;;;1844191;77;21072;-83
2023/07/15 12:26:40;;;;;;;11.63;5.58;;;31.80;94.90;;;;;;1842463;77;21103;-80
2023/07/15 12:29:19;;;;;;;12.75;5.08;;;31.70;94.80;;;;;;1803640;79;21119;-82
2023/07/15 12:31:52;;;;;;;12.78;5.70;;;31.70;95.00;;;;;;1800681;78;21115;-81
2023/07/15 12:34:26;;;;;;;9.40;5.20;;;31.70;95.10;;;;;;1828496;77;21163;-82
2023/07/15 12:37:07;;;;;;;11.20;4.92;;;31.70;95.10;;;;;;1833193;77;21182;-81
2023/07/15 12:39:41;;;;;;;9.45;5.10;;;31.70;95.20;;;;;;1846549;77;21478;-82
2023/07/15 12:42:14;;;;;;;9.55;5.22;;;31.70;95.20;;;;;;1832490;77;21063;-80
2023/07/15 12:44:49;;;;;;;10.93;4.90;;;31.60;95.20;;;;;;1837468;77;21092;-79
2023/07/15 12:47:23;;;;;;;11.65;5.15;;;31.60;95.30;;;;;;1836647;77;21157;-80
2023/07/15 12:50:02;;;;;;;10.72;5.22;;;31.60;95.30;;;;;;1832440;77;21084;-79
2023/07/15 12:52:33;;;;;;;9.25;5.47;;;31.60;95.40;;;;;;1853372;75;21024;-78
2023/07/15 12:55:07;;;;;;;9.20;5.35;;;31.60;95.40;;;;;;1852731;77;21647;-77
2023/07/15 12:57:40;;;;;;;8.88;5.30;;;31.50;95.40;;;;;;1841398;77;21141;-77
2023/07/15 13:00:13;;;;;;;12.20;5.17;;;31.50;95.50;;;;;;1824694;78;21131;-80
2023/07/15 13:02:51;;;;;;;12.07;5.50;;;31.50;95.70;;;;;;1806313;78;21136;-83
2023/07/15 13:05:24;;;;;;;10.10;4.92;;;31.50;95.60;;;;;;1805300;78;21170;-81
2023/07/15 13:07:56;;;;;;;12.33;5.30;;;31.40;95.60;;;;;;1838616;77;21160;-81
2023/07/15 13:10:30;;;;;;;13.08;5.20;;;31.50;95.70;;;;;;1809677;79;21119;-83
2023/07/15 13:13:07;;;;;;;13.53;6.03;;;31.40;95.80;;;;;;1799195;78;21169;-81
2023/07/15 13:15:44;;;;;;;13.58;5.80;;;31.40;95.90;;;;;;1799337;78;21088;-82
2023/07/15 13:18:18;;;;;;;10.45;5.22;;;31.30;95.90;;;;;;1821756;77;21203;-78
2023/07/15 13:20:51;;;;;;;10.38;5.35;;;31.30;96.10;;;;;;1807271;78;21651;-82
2023/07/15 13:23:23;;;;;;;11.55;5.83;;;31.30;96.10;;;;;;1811874;78;21099;-81
2023/07/15 13:25:56;;;;;;;10.43;5.60;;;31.30;96.10;;;;;;1803696;79;21138;-81
2023/07/15 13:28:29;;;;;;;11.57;5.78;;;31.20;96.20;;;;;;1810866;79;21107;-81